Time;durP1;ratioP1;P1;durP2;ratioP2;P2;SDS_P1;SDS_P2;PMS_P1;PMS_P2;Temp;Humidity;BMP_temperature;BMP_pressure;BME280_temperature;BME280_humidity;BME280_pressure;Samples;Min_cycle;Max_cycle;Signal;HPM_P1;HPM_P2
2021/06/29 00:01:46;;;;;;;7.28;0.90;;;20.70;99.90;;;;;;5015953;28;20053;-86
2021/06/29 00:04:13;;;;;;;2.13;0.40;;;20.60;99.90;;;;;;5016502;28;20051;-85
2021/06/29 00:06:40;;;;;;;0.40;0.40;;;20.60;99.90;;;;;;5015753;28;20492;-86
2021/06/29 00:09:07;;;;;;;2.50;0.55;;;20.50;99.90;;;;;;5015752;28;20060;-85
2021/06/29 00:11:38;;;;;;;0.38;0.38;;;20.50;99.90;;;;;;5016613;28;20128;-86
2021/06/29 00:14:04;;;;;;;0.50;0.50;;;20.50;99.90;;;;;;5016042;28;20045;-85
2021/06/29 00:16:31;;;;;;;0.45;0.43;;;20.50;99.90;;;;;;5015872;28;20144;-87
2021/06/29 00:18:58;;;;;;;1.00;0.40;;;20.40;99.90;;;;;;5015990;28;20057;-87
2021/06/29 00:21:25;;;;;;;0.40;0.40;;;20.40;99.90;;;;;;5016166;28;20080;-87
2021/06/29 00:23:51;;;;;;;0.30;0.30;;;20.30;99.90;;;;;;5015923;28;20494;-87
2021/06/29 00:26:18;;;;;;;0.88;0.57;;;20.30;99.90;;;;;;5016147;28;20057;-87
2021/06/29 00:28:45;;;;;;;2.15;0.50;;;20.30;99.90;;;;;;5016493;28;20046;-87
2021/06/29 00:31:12;;;;;;;1.45;0.30;;;20.20;99.90;;;;;;5016946;28;20056;-87
2021/06/29 00:33:39;;;;;;;0.90;0.50;;;20.10;99.90;;;;;;5033825;28;20486;-86
2021/06/29 00:36:06;;;;;;;0.65;0.65;;;20.20;99.90;;;;;;5018587;28;20046;-87
2021/06/29 00:38:33;;;;;;;0.45;0.45;;;20.20;99.90;;;;;;5015567;28;20508;-87
2021/06/29 00:41:01;;;;;;;1.17;0.50;;;20.20;99.90;;;;;;5016019;28;20049;-87
2021/06/29 00:43:28;;;;;;;1.35;0.50;;;20.30;99.90;;;;;;5015701;28;20049;-87
2021/06/29 00:45:54;;;;;;;0.85;0.60;;;20.30;99.90;;;;;;5016051;28;20073;-86
2021/06/29 00:48:21;;;;;;;0.55;0.55;;;20.30;99.90;;;;;;5015928;28;20059;-86
2021/06/29 00:50:48;;;;;;;2.63;0.57;;;20.30;99.90;;;;;;5016048;28;20389;-86
2021/06/29 00:53:15;;;;;;;0.50;0.50;;;20.30;99.90;;;;;;5015691;28;20490;-86
2021/06/29 00:55:43;;;;;;;1.02;0.60;;;20.30;99.90;;;;;;5015576;28;20045;-86
2021/06/29 00:58:11;;;;;;;0.50;0.50;;;20.40;99.90;;;;;;5015658;28;20060;-87
2021/06/29 01:00:41;;;;;;;0.60;0.60;;;20.30;99.90;;;;;;5015830;28;20075;-87
2021/06/29 01:03:08;;;;;;;0.40;0.40;;;20.30;99.90;;;;;;5016121;28;20053;-87
2021/06/29 01:05:35;;;;;;;1.20;0.70;;;20.20;99.90;;;;;;5017022;28;20057;-86
2021/06/29 01:08:02;;;;;;;0.68;0.68;;;20.10;99.90;;;;;;5017087;28;20053;-88
2021/06/29 01:10:29;;;;;;;1.20;0.65;;;20.10;99.90;;;;;;5016136;28;20071;-87
2021/06/29 01:12:56;;;;;;;0.73;0.60;;;20.00;99.90;;;;;;5015915;28;20075;-87
2021/06/29 01:15:24;;;;;;;3.13;0.55;;;20.00;99.90;;;;;;5015189;28;20046;-87
2021/06/29 01:17:56;;;;;;;0.70;0.60;;;20.00;99.90;;;;;;5015735;28;20057;-87
2021/06/29 01:20:32;;;;;;;0.55;0.55;;;19.90;99.90;;;;;;5017329;28;20132;-88
2021/06/29 01:23:06;;;;;;;0.50;0.40;;;19.90;99.90;;;;;;5019053;28;20153;-87
2021/06/29 01:25:33;;;;;;;0.60;0.60;;;19.80;99.90;;;;;;5019256;28;20077;-87
2021/06/29 01:28:14;;;;;;;0.60;0.52;;;19.70;99.90;;;;;;5019345;28;20398;-88
2021/06/29 01:33:43;;;;;;;0.70;0.70;;;19.60;99.90;;;;;;4975681;28;20058;-88
2021/06/29 01:36:21;;;;;;;0.75;0.75;;;19.60;99.90;;;;;;5010909;28;20060;-88
2021/06/29 01:38:50;;;;;;;0.73;0.50;;;19.60;99.90;;;;;;5018762;28;20152;-89
2021/06/29 01:41:20;;;;;;;0.75;0.75;;;19.50;99.90;;;;;;5018548;28;20068;-88
2021/06/29 01:43:51;;;;;;;0.60;0.60;;;19.40;99.90;;;;;;5018690;28;20049;-88
2021/06/29 01:46:19;;;;;;;1.08;0.75;;;19.30;99.90;;;;;;5018791;28;20132;-89
2021/06/29 01:48:47;;;;;;;0.63;0.63;;;19.20;99.90;;;;;;5019611;28;20060;-88
2021/06/29 01:51:14;;;;;;;2.05;0.77;;;19.00;99.90;;;;;;5024706;28;20093;-89
2021/06/29 01:53:42;;;;;;;0.95;0.70;;;18.80;99.90;;;;;;5041988;28;20049;-89
2021/06/29 01:56:14;;;;;;;0.73;0.70;;;18.70;99.90;;;;;;5026969;28;20065;-88
2021/06/29 01:58:53;;;;;;;0.93;0.93;;;18.50;99.90;;;;;;5018375;28;20053;-89
2021/06/29 02:01:22;;;;;;;4.05;0.98;;;18.50;99.90;;;;;;5018377;28;20132;-88
2021/06/29 02:03:49;;;;;;;1.33;0.90;;;18.40;99.90;;;;;;5019270;28;20405;-89
2021/06/29 02:06:16;;;;;;;3.45;1.30;;;18.30;99.90;;;;;;5019694;28;20057;-90
2021/06/29 02:08:44;;;;;;;5.90;1.40;;;18.30;99.90;;;;;;5018624;28;20446;-91
2021/06/29 02:11:11;;;;;;;5.97;2.00;;;18.20;99.90;;;;;;5018392;28;20080;-92
2021/06/29 02:13:38;;;;;;;11.55;2.55;;;18.20;99.90;;;;;;5018383;28;20132;-91
2021/06/29 02:16:05;;;;;;;11.40;2.40;;;18.20;99.90;;;;;;5017724;28;20052;-86
2021/06/29 02:18:32;;;;;;;8.77;2.92;;;18.10;99.90;;;;;;5017079;28;20058;-85
2021/06/29 02:21:00;;;;;;;10.47;4.00;;;18.00;99.90;;;;;;5017393;28;20477;-86
2021/06/29 02:23:27;;;;;;;8.90;3.80;;;17.80;99.90;;;;;;5016647;28;20830;-85
2021/06/29 02:25:54;;;;;;;12.25;4.10;;;17.80;99.90;;;;;;5016999;28;20291;-83
2021/06/29 02:28:20;;;;;;;14.10;4.60;;;17.90;99.90;;;;;;5016739;28;20553;-85
2021/06/29 02:30:47;;;;;;;17.92;5.88;;;17.70;99.90;;;;;;5016588;28;20053;-85
2021/06/29 02:33:14;;;;;;;8.38;4.28;;;17.70;99.90;;;;;;5016689;28;20075;-85
2021/06/29 02:35:41;;;;;;;8.65;4.68;;;17.60;99.90;;;;;;5034545;28;20077;-85
2021/06/29 02:38:08;;;;;;;12.15;4.80;;;17.60;99.90;;;;;;5017231;28;20147;-86
2021/06/29 02:40:34;;;;;;;10.63;4.50;;;17.60;99.90;;;;;;5017235;28;20053;-86
2021/06/29 02:43:01;;;;;;;11.77;4.82;;;17.50;99.90;;;;;;5017320;28;20045;-86
2021/06/29 02:45:29;;;;;;;9.57;4.85;;;17.50;99.90;;;;;;5016854;28;20049;-85
2021/06/29 02:47:57;;;;;;;11.57;5.30;;;17.40;99.90;;;;;;5017137;28;20136;-85
2021/06/29 02:50:25;;;;;;;8.65;4.68;;;17.40;99.90;;;;;;5017170;28;20073;-86
2021/06/29 02:52:52;;;;;;;7.32;4.72;;;17.40;99.90;;;;;;5016747;28;20052;-85
2021/06/29 02:55:19;;;;;;;8.25;5.00;;;17.40;99.90;;;;;;5016659;28;20132;-85
2021/06/29 02:57:46;;;;;;;7.25;4.70;;;17.40;99.90;;;;;;5017061;28;20049;-85
2021/06/29 03:00:16;;;;;;;9.23;5.25;;;17.50;99.90;;;;;;5034022;28;20049;-85
2021/06/29 03:02:44;;;;;;;5.78;5.18;;;17.50;99.90;;;;;;5016980;28;20053;-84
2021/06/29 03:05:11;;;;;;;5.13;4.70;;;17.50;99.90;;;;;;5016631;28;20060;-85
2021/06/29 03:07:38;;;;;;;7.28;5.40;;;17.50;99.90;;;;;;5017086;28;20405;-85
2021/06/29 03:10:06;;;;;;;7.18;4.60;;;17.50;99.90;;;;;;5035550;28;20048;-86
2021/06/29 03:12:33;;;;;;;10.88;5.55;;;17.50;99.90;;;;;;5031543;28;20133;-86
2021/06/29 03:15:01;;;;;;;8.98;5.50;;;17.50;99.90;;;;;;5016995;28;20056;-86
2021/06/29 03:17:28;;;;;;;12.13;5.78;;;17.50;99.90;;;;;;5016411;28;20514;-85
2021/06/29 03:19:56;;;;;;;7.38;5.80;;;17.40;99.90;;;;;;5016249;28;20050;-86
2021/06/29 03:22:23;;;;;;;8.73;6.20;;;17.30;99.90;;;;;;5016570;28;20409;-87
2021/06/29 03:24:50;;;;;;;10.63;6.82;;;17.30;99.90;;;;;;5016654;28;20049;-87
2021/06/29 03:27:18;;;;;;;9.25;6.78;;;17.30;99.90;;;;;;5016790;28;20099;-87
2021/06/29 03:29:44;;;;;;;13.27;9.20;;;17.30;99.90;;;;;;5017248;28;20049;-87
2021/06/29 03:32:11;;;;;;;11.27;8.32;;;17.40;99.90;;;;;;5016654;28;20053;-87
2021/06/29 03:34:38;;;;;;;15.00;8.13;;;17.30;99.90;;;;;;5016699;28;20049;-87
2021/06/29 03:37:06;;;;;;;9.95;7.65;;;17.40;99.90;;;;;;5016406;28;20136;-86
2021/06/29 03:39:34;;;;;;;9.38;8.35;;;17.40;99.90;;;;;;5016442;28;20051;-87
2021/06/29 03:42:01;;;;;;;11.05;8.25;;;17.40;99.90;;;;;;5015835;28;20441;-87
2021/06/29 03:44:28;;;;;;;8.75;7.28;;;17.40;99.90;;;;;;5016193;28;20129;-87
2021/06/29 03:46:55;;;;;;;12.60;7.93;;;17.40;99.90;;;;;;5016329;28;20049;-88
2021/06/29 03:49:22;;;;;;;10.13;7.70;;;17.40;99.90;;;;;;5016397;28;20118;-88
2021/06/29 03:51:50;;;;;;;8.80;7.90;;;17.50;99.90;;;;;;5016488;28;20053;-86
2021/06/29 03:54:17;;;;;;;8.50;7.72;;;17.50;99.90;;;;;;5016103;28;20050;-88
2021/06/29 03:56:43;;;;;;;8.88;8.00;;;17.50;99.90;;;;;;5016241;28;20454;-87
2021/06/29 03:59:11;;;;;;;8.60;7.13;;;17.50;99.90;;;;;;5016133;28;20139;-87
2021/06/29 04:01:38;;;;;;;10.68;7.50;;;17.50;99.90;;;;;;5015954;28;20136;-87
2021/06/29 04:04:05;;;;;;;8.90;8.10;;;17.40;99.90;;;;;;5016451;28;20057;-87
2021/06/29 04:06:33;;;;;;;10.13;9.07;;;17.40;99.90;;;;;;5015958;28;20401;-86
2021/06/29 04:09:02;;;;;;;13.75;8.65;;;17.50;99.90;;;;;;5016043;28;20089;-87
2021/06/29 04:11:29;;;;;;;10.65;8.68;;;17.50;99.90;;;;;;5015872;28;20049;-87
2021/06/29 04:13:56;;;;;;;11.15;9.07;;;17.60;99.90;;;;;;5016019;28;20128;-89
2021/06/29 04:16:23;;;;;;;10.60;9.57;;;17.60;99.90;;;;;;5015840;28;20049;-86
2021/06/29 04:18:50;;;;;;;9.75;8.82;;;17.60;99.90;;;;;;5015651;28;20057;-87
2021/06/29 04:21:21;;;;;;;9.07;8.23;;;17.60;99.90;;;;;;5016299;28;20068;-87
2021/06/29 04:23:47;;;;;;;11.38;9.02;;;17.60;99.90;;;;;;5015782;28;20049;-87
2021/06/29 04:26:18;;;;;;;10.95;8.35;;;17.60;99.90;;;;;;5016162;28;20465;-87
2021/06/29 04:28:46;;;;;;;9.05;8.15;;;17.60;99.90;;;;;;5016105;28;20063;-87
2021/06/29 04:31:13;;;;;;;14.43;8.55;;;17.60;99.90;;;;;;5027656;28;20059;-88
2021/06/29 04:33:40;;;;;;;8.80;8.00;;;17.50;99.90;;;;;;5034271;28;20053;-87
2021/06/29 04:36:07;;;;;;;9.02;8.23;;;17.50;99.90;;;;;;5015577;28;20114;-87
2021/06/29 04:38:34;;;;;;;9.18;8.38;;;17.60;99.90;;;;;;5015700;28;20057;-88
2021/06/29 04:41:02;;;;;;;12.30;9.98;;;17.50;99.90;;;;;;5015966;28;20512;-87
2021/06/29 04:43:28;;;;;;;8.40;7.60;;;17.50;99.90;;;;;;5017535;28;20049;-87
2021/06/29 04:45:55;;;;;;;11.13;8.45;;;17.40;99.90;;;;;;5023242;28;20516;-87
2021/06/29 04:48:22;;;;;;;8.85;8.05;;;17.40;99.90;;;;;;5024084;28;20144;-86
2021/06/29 04:50:48;;;;;;;14.30;10.55;;;17.40;99.90;;;;;;5026956;28;20401;-87
2021/06/29 04:53:15;;;;;;;10.90;9.85;;;17.40;99.90;;;;;;5026780;28;20052;-87
2021/06/29 04:55:42;;;;;;;11.55;9.65;;;17.50;99.90;;;;;;5026627;28;20055;-87
2021/06/29 04:58:09;;;;;;;11.43;10.25;;;17.50;99.90;;;;;;5038949;28;20049;-87
2021/06/29 05:00:39;;;;;;;10.05;9.23;;;17.60;99.90;;;;;;5039060;28;20140;-87
2021/06/29 05:03:06;;;;;;;11.70;9.35;;;17.60;99.90;;;;;;5042180;28;20063;-88
2021/06/29 05:05:33;;;;;;;10.48;9.10;;;17.60;99.90;;;;;;5039017;28;20045;-88
2021/06/29 05:08:00;;;;;;;9.73;8.77;;;17.70;99.90;;;;;;5056232;28;20063;-87
2021/06/29 05:10:28;;;;;;;11.57;8.88;;;17.70;99.90;;;;;;5038540;28;20132;-88
2021/06/29 05:12:55;;;;;;;10.57;9.48;;;17.70;99.90;;;;;;5039302;28;20153;-88
2021/06/29 05:15:22;;;;;;;9.88;8.98;;;17.80;99.90;;;;;;5038990;28;20508;-88
2021/06/29 05:17:49;;;;;;;10.57;9.48;;;17.80;99.90;;;;;;5038639;28;20053;-87
2021/06/29 05:20:16;;;;;;;9.68;8.73;;;17.90;99.90;;;;;;5039008;28;20076;-88
2021/06/29 05:22:43;;;;;;;10.13;9.20;;;17.90;99.90;;;;;;5056314;28;20537;-88
2021/06/29 05:25:10;;;;;;;9.57;8.85;;;17.80;99.90;;;;;;5038919;28;20081;-88
2021/06/29 05:27:39;;;;;;;9.32;8.48;;;17.80;99.90;;;;;;5038966;28;20055;-89
2021/06/29 05:30:07;;;;;;;8.57;7.88;;;17.80;99.90;;;;;;5038887;28;20084;-89
2021/06/29 05:32:35;;;;;;;8.93;8.18;;;17.80;99.90;;;;;;5038889;28;20052;-88
2021/06/29 05:35:03;;;;;;;8.75;8.15;;;17.90;99.90;;;;;;5038146;28;20140;-89
2021/06/29 05:37:30;;;;;;;11.13;8.20;;;17.80;99.90;;;;;;5038082;28;20053;-89
2021/06/29 05:39:57;;;;;;;9.75;8.77;;;17.80;99.90;;;;;;5038982;28;20059;-89
2021/06/29 05:42:24;;;;;;;10.15;9.23;;;17.90;99.90;;;;;;5042348;28;20545;-88
2021/06/29 05:44:51;;;;;;;10.65;9.55;;;17.90;99.90;;;;;;5047022;28;20072;-88
2021/06/29 05:47:21;;;;;;;10.60;9.55;;;18.00;99.90;;;;;;5045999;28;20067;-88
2021/06/29 05:49:49;;;;;;;10.50;9.50;;;17.90;99.90;;;;;;5050541;28;20065;-88
2021/06/29 05:52:16;;;;;;;19.75;11.07;;;18.00;99.90;;;;;;5044472;28;20533;-89
2021/06/29 05:54:44;;;;;;;15.15;10.40;;;17.90;99.90;;;;;;5039036;28;20059;-89
2021/06/29 05:57:12;;;;;;;11.70;10.20;;;18.00;99.90;;;;;;5038775;28;20076;-89
2021/06/29 05:59:40;;;;;;;11.23;10.13;;;18.00;99.90;;;;;;5038541;28;20068;-89
2021/06/29 06:02:08;;;;;;;11.90;10.60;;;18.00;99.90;;;;;;5038629;28;20102;-89
2021/06/29 06:04:35;;;;;;;16.80;12.50;;;18.10;99.90;;;;;;5038538;28;20049;-90
2021/06/29 06:07:03;;;;;;;20.48;13.60;;;18.10;99.90;;;;;;5038318;28;20060;-90
2021/06/29 06:09:30;;;;;;;17.75;12.60;;;18.20;99.90;;;;;;5038550;28;20131;-89
2021/06/29 06:11:57;;;;;;;10.68;9.77;;;18.20;99.90;;;;;;5038409;28;20561;-90
2021/06/29 06:14:25;;;;;;;9.63;8.73;;;18.30;99.90;;;;;;5038764;28;20052;-89
2021/06/29 06:16:51;;;;;;;7.30;6.80;;;18.40;99.90;;;;;;5038058;28;20511;-89
2021/06/29 06:19:18;;;;;;;7.45;6.85;;;18.40;99.90;;;;;;5038227;28;20137;-90
2021/06/29 06:21:45;;;;;;;6.88;6.38;;;18.40;99.90;;;;;;5038204;28;20057;-89
2021/06/29 06:24:12;;;;;;;7.00;6.43;;;18.40;99.90;;;;;;5038287;28;20049;-91
2021/06/29 06:26:39;;;;;;;6.70;6.20;;;18.40;99.90;;;;;;5038332;28;20468;-91
2021/06/29 06:29:06;;;;;;;7.10;5.75;;;18.50;99.90;;;;;;5038477;28;20484;-91
2021/06/29 06:31:33;;;;;;;6.15;5.55;;;18.60;99.90;;;;;;5038543;28;20049;-91
2021/06/29 06:34:00;;;;;;;4.30;4.00;;;18.70;99.90;;;;;;5038709;28;20442;-91
2021/06/29 06:36:27;;;;;;;5.03;4.53;;;18.80;99.90;;;;;;5038892;28;20060;-93
2021/06/29 06:38:54;;;;;;;4.80;4.50;;;19.10;99.90;;;;;;5038607;28;20080;-88
2021/06/29 06:41:22;;;;;;;3.22;3.10;;;19.30;99.90;;;;;;5038723;28;20083;-93
2021/06/29 06:43:49;;;;;;;3.38;3.10;;;19.30;99.90;;;;;;5038632;28;20056;-89
2021/06/29 06:46:16;;;;;;;3.58;2.90;;;19.50;99.90;;;;;;5039315;28;20052;-92
2021/06/29 06:48:43;;;;;;;2.88;2.63;;;19.60;99.90;;;;;;5038728;28;20056;-92
2021/06/29 06:51:12;;;;;;;7.63;4.00;;;19.80;99.90;;;;;;5039820;28;20055;-92
2021/06/29 06:53:38;;;;;;;7.82;3.67;;;20.00;99.90;;;;;;5040023;28;20060;-92
2021/06/29 06:56:05;;;;;;;4.60;2.95;;;20.50;99.90;;;;;;5038961;28;20067;-93
2021/06/29 06:58:32;;;;;;;2.47;2.30;;;21.10;99.90;;;;;;5036824;28;20083;-93
2021/06/29 07:00:59;;;;;;;2.10;2.00;;;21.70;99.90;;;;;;5038551;28;20084;-93
2021/06/29 07:03:27;;;;;;;2.85;2.30;;;22.20;99.90;;;;;;5037308;28;20057;-92
2021/06/29 07:05:54;;;;;;;2.00;1.90;;;22.20;99.90;;;;;;5038026;28;20131;-94
2021/06/29 07:08:21;;;;;;;2.13;2.03;;;22.40;99.90;;;;;;5046976;28;20112;-92
2021/06/29 07:10:48;;;;;;;2.22;2.10;;;22.70;99.90;;;;;;5050974;28;20481;-92
2021/06/29 07:13:15;;;;;;;2.33;2.13;;;22.60;99.90;;;;;;5038830;28;20549;-94
2021/06/29 07:15:42;;;;;;;2.45;2.30;;;22.40;99.90;;;;;;5037510;28;20045;-95
2021/06/29 07:18:14;;;;;;;2.40;2.30;;;22.20;99.90;;;;;;5037323;28;20093;-94
2021/06/29 07:20:43;;;;;;;2.42;2.33;;;22.30;99.90;;;;;;5037595;28;20143;-94
2021/06/29 07:23:11;;;;;;;4.05;2.20;;;22.10;99.90;;;;;;5037427;28;20053;-95
2021/06/29 07:25:38;;;;;;;2.83;2.63;;;22.00;99.90;;;;;;5036906;28;20045;-93
2021/06/29 07:28:06;;;;;;;2.58;2.42;;;21.80;99.90;;;;;;5036881;28;20152;-95
2021/06/29 07:30:35;;;;;;;2.78;2.60;;;21.50;99.90;;;;;;5037100;28;20139;-94
2021/06/29 07:33:03;;;;;;;9.27;2.88;;;21.40;99.90;;;;;;5037233;28;20405;-95
2021/06/29 07:35:30;;;;;;;4.50;3.05;;;21.10;99.90;;;;;;5036580;28;20144;-94
2021/06/29 07:38:01;;;;;;;3.05;2.75;;;21.00;99.90;;;;;;5036323;28;20505;-95
2021/06/29 07:40:29;;;;;;;2.65;2.45;;;20.80;99.90;;;;;;5037515;28;20065;-95
2021/06/29 07:42:57;;;;;;;3.33;3.03;;;20.60;99.90;;;;;;5036861;28;20068;-95
2021/06/29 07:45:27;;;;;;;2.83;2.63;;;20.50;99.90;;;;;;5037353;28;20052;-95
2021/06/29 07:47:57;;;;;;;3.50;3.20;;;20.40;99.90;;;;;;5035895;28;20040;-95
2021/06/29 07:50:24;;;;;;;2.90;2.55;;;20.50;99.90;;;;;;5036797;28;20493;-94
2021/06/29 07:52:55;;;;;;;2.67;2.47;;;20.70;99.90;;;;;;5038335;28;20048;-95
2021/06/29 07:55:22;;;;;;;2.20;2.10;;;20.80;99.90;;;;;;5036832;28;20076;-94
2021/06/29 07:57:49;;;;;;;3.65;1.83;;;20.90;99.90;;;;;;5054510;28;20140;-95
2021/06/29 08:00:17;;;;;;;2.13;2.10;;;20.80;99.90;;;;;;5037251;28;20056;-94
2021/06/29 08:02:44;;;;;;;2.42;1.90;;;20.70;99.90;;;;;;5058699;28;20029;-95
2021/06/29 08:05:11;;;;;;;1.98;1.83;;;20.70;99.90;;;;;;5044575;28;20033;-95
2021/06/29 08:07:39;;;;;;;2.38;1.90;;;20.80;99.90;;;;;;5047776;28;20132;-94
2021/06/29 08:10:07;;;;;;;2.15;1.95;;;21.20;99.90;;;;;;5038786;28;20081;-94
2021/06/29 08:12:34;;;;;;;1.90;1.80;;;21.60;99.90;;;;;;5036439;28;20441;-92
2021/06/29 08:15:02;;;;;;;2.67;2.00;;;21.90;99.90;;;;;;5053239;28;20045;-94
2021/06/29 08:17:34;;;;;;;3.93;1.97;;;22.20;99.90;;;;;;5037084;28;20081;-93
2021/06/29 08:20:01;;;;;;;2.03;1.92;;;22.30;99.90;;;;;;5035977;28;20342;-95
2021/06/29 08:22:28;;;;;;;2.17;1.98;;;22.40;99.90;;;;;;5036159;28;20135;-94
2021/06/29 08:24:55;;;;;;;1.80;1.70;;;22.40;99.90;;;;;;5036162;28;20088;-93
2021/06/29 08:27:22;;;;;;;1.60;1.60;;;22.70;99.90;;;;;;5059206;28;20100;-94
2021/06/29 08:29:52;;;;;;;2.10;1.90;;;22.80;99.90;;;;;;5056360;28;20064;-94
2021/06/29 08:32:19;;;;;;;4.28;1.90;;;22.80;99.90;;;;;;5044432;28;20053;-93
2021/06/29 08:34:46;;;;;;;1.83;1.73;;;22.70;99.90;;;;;;5040626;28;20104;-93
2021/06/29 08:37:13;;;;;;;1.95;1.90;;;22.70;99.90;;;;;;5040170;28;20098;-94
2021/06/29 08:39:40;;;;;;;2.10;2.00;;;22.90;99.90;;;;;;5040247;28;20192;-92
2021/06/29 08:42:07;;;;;;;1.70;1.60;;;23.70;99.90;;;;;;5039798;28;20320;-92
2021/06/29 08:44:34;;;;;;;4.90;2.00;;;24.60;99.90;;;;;;5039527;28;20074;-93
2021/06/29 08:47:01;;;;;;;1.73;1.63;;;25.60;99.90;;;;;;5039937;28;20060;-93
2021/06/29 08:49:28;;;;;;;2.20;2.00;;;26.20;99.90;;;;;;5039470;28;20112;-91
2021/06/29 08:51:57;;;;;;;2.47;1.73;;;26.50;99.90;;;;;;5039689;28;20091;-93
2021/06/29 08:54:25;;;;;;;3.38;2.00;;;27.40;99.90;;;;;;5040271;28;20132;-92
2021/06/29 08:56:52;;;;;;;3.40;2.08;;;28.80;99.90;;;;;;5039634;28;20113;-89
2021/06/29 08:59:18;;;;;;;1.73;1.70;;;29.70;99.90;;;;;;5039177;28;20059;-90
2021/06/29 09:01:45;;;;;;;1.80;1.70;;;30.20;99.90;;;;;;5039602;28;20049;-91
2021/06/29 09:04:12;;;;;;;2.42;1.90;;;29.90;99.90;;;;;;5039516;28;20049;-90
2021/06/29 09:06:41;;;;;;;4.15;2.00;;;29.50;99.90;;;;;;5039362;28;20053;-92
2021/06/29 09:09:27;;;;;;;3.83;1.73;;;28.60;99.90;;;;;;5039761;28;20131;-93
2021/06/29 09:11:57;;;;;;;2.20;2.10;;;27.80;99.90;;;;;;5058936;28;20148;-87
2021/06/29 09:14:29;;;;;;;9.85;3.65;;;27.70;99.90;;;;;;5039331;28;20557;-92
2021/06/29 09:17:19;;;;;;;10.35;3.72;;;27.50;99.90;;;;;;5039208;28;20485;-92
2021/06/29 09:19:47;;;;;;;2.20;2.00;;;27.90;99.90;;;;;;5044041;28;20064;-91
2021/06/29 09:22:31;;;;;;;2.20;2.00;;;27.60;99.90;;;;;;5039353;28;20061;-93
2021/06/29 09:24:59;;;;;;;1.90;1.77;;;28.10;99.90;;;;;;5038843;28;20060;-91
2021/06/29 09:27:47;;;;;;;1.85;1.80;;;28.30;99.90;;;;;;5038943;28;20048;-87
2021/06/29 09:30:38;;;;;;;2.17;1.70;;;27.80;99.90;;;;;;5039030;28;20099;-91
2021/06/29 09:33:26;;;;;;;5.32;3.00;;;27.80;99.90;;;;;;5039095;28;20049;-91
2021/06/29 09:35:56;;;;;;;1.85;1.83;;;27.50;99.90;;;;;;5038782;28;20045;-90
2021/06/29 09:38:29;;;;;;;1.70;1.60;;;27.00;99.90;;;;;;5038733;28;20041;-91
2021/06/29 09:41:01;;;;;;;2.00;1.90;;;26.60;99.90;;;;;;5038627;28;20048;-92
2021/06/29 09:43:30;;;;;;;1.70;1.60;;;27.30;99.90;;;;;;5039497;28;20049;-89
2021/06/29 09:46:01;;;;;;;1.70;1.60;;;28.30;99.90;;;;;;5042172;28;20117;-90
2021/06/29 09:48:38;;;;;;;1.80;1.70;;;28.50;99.90;;;;;;5051367;28;20434;-89
2021/06/29 09:51:14;;;;;;;5.07;1.77;;;28.70;99.90;;;;;;5040287;28;20048;-89
2021/06/29 09:53:42;;;;;;;1.38;1.38;;;28.90;99.90;;;;;;5038664;28;20143;-89
2021/06/29 09:56:12;;;;;;;1.83;1.73;;;28.60;99.90;;;;;;5039246;28;20052;-89
2021/06/29 09:58:41;;;;;;;1.92;1.63;;;28.20;99.90;;;;;;5038425;28;20049;-88
2021/06/29 10:01:10;;;;;;;1.65;1.40;;;28.60;99.90;;;;;;5039040;28;20077;-88
2021/06/29 10:03:39;;;;;;;1.40;1.30;;;28.90;99.90;;;;;;5038955;28;20045;-91
2021/06/29 10:06:14;;;;;;;2.65;1.27;;;28.80;99.90;;;;;;5038350;28;20385;-89
2021/06/29 10:08:43;;;;;;;1.80;1.42;;;29.00;99.90;;;;;;5039215;28;20128;-88
2021/06/29 10:11:20;;;;;;;1.25;1.17;;;29.20;99.90;;;;;;5038012;28;20053;-88
2021/06/29 10:13:51;;;;;;;1.30;1.30;;;29.30;99.90;;;;;;5037997;28;20045;-88
2021/06/29 10:16:21;;;;;;;2.28;1.17;;;29.50;99.90;;;;;;5038004;28;20057;-88
2021/06/29 10:19:02;;;;;;;2.15;1.50;;;29.80;99.90;;;;;;5037852;28;20489;-87
2021/06/29 10:21:30;;;;;;;2.80;1.70;;;30.10;99.90;;;;;;5038345;28;20049;-88
2021/06/29 10:24:03;;;;;;;1.35;1.35;;;31.00;99.90;;;;;;5039140;28;20055;-88
2021/06/29 10:26:32;;;;;;;1.30;1.20;;;31.70;99.80;;;;;;5038672;28;20537;-89
2021/06/29 10:29:00;;;;;;;5.53;1.10;;;32.10;97.30;;;;;;5037639;28;20464;-88
2021/06/29 10:31:30;;;;;;;1.13;1.10;;;32.50;93.90;;;;;;5037476;28;20493;-87
2021/06/29 10:33:59;;;;;;;1.00;0.98;;;32.10;95.00;;;;;;5037748;28;20045;-88
2021/06/29 10:36:27;;;;;;;1.27;1.25;;;32.30;94.10;;;;;;5037280;28;20052;-89
2021/06/29 10:38:56;;;;;;;1.20;1.10;;;32.10;92.80;;;;;;5037490;28;20140;-88
2021/06/29 10:41:32;;;;;;;1.30;1.20;;;32.30;93.50;;;;;;5037475;28;20045;-89
2021/06/29 10:43:59;;;;;;;2.33;0.98;;;32.30;93.20;;;;;;5037425;28;20132;-88
2021/06/29 10:46:29;;;;;;;1.20;1.10;;;32.60;92.30;;;;;;5037430;28;20067;-89
2021/06/29 10:48:57;;;;;;;3.00;1.30;;;32.80;91.90;;;;;;5037514;28;20057;-88
2021/06/29 10:51:37;;;;;;;1.33;1.23;;;33.10;91.80;;;;;;5036851;28;20041;-88
2021/06/29 10:54:04;;;;;;;5.00;1.92;;;33.40;87.00;;;;;;5036692;28;20073;-88
2021/06/29 10:56:53;;;;;;;3.40;1.27;;;34.00;87.50;;;;;;5037188;28;20045;-88
2021/06/29 10:59:31;;;;;;;4.03;1.13;;;35.20;80.00;;;;;;5036919;28;20055;-88
2021/06/29 11:01:58;;;;;;;1.98;1.10;;;34.40;80.40;;;;;;5037174;28;20103;-87
2021/06/29 11:04:58;;;;;;;0.80;0.80;;;34.50;80.10;;;;;;5036989;28;20133;-86
2021/06/29 11:07:25;;;;;;;2.03;0.75;;;35.40;73.80;;;;;;5052695;28;20057;-86
2021/06/29 11:09:54;;;;;;;0.80;0.80;;;38.20;70.70;;;;;;5038355;28;20130;-85
2021/06/29 11:12:23;;;;;;;2.75;1.20;;;40.00;64.40;;;;;;5036505;28;20131;-86
2021/06/29 11:14:53;;;;;;;1.00;1.00;;;39.30;60.80;;;;;;5036993;28;20049;-87
2021/06/29 11:17:22;;;;;;;1.10;1.00;;;38.10;61.20;;;;;;5054015;28;20124;-88
2021/06/29 11:20:12;;;;;;;1.05;0.98;;;37.60;63.10;;;;;;5053664;28;20059;-92
2021/06/29 11:22:53;;;;;;;1.30;0.80;;;35.60;65.80;;;;;;5036778;28;20045;-87
2021/06/29 11:25:34;;;;;;;1.13;1.13;;;32.60;67.70;;;;;;5036143;28;20049;-87
2021/06/29 11:28:32;;;;;;;1.10;1.10;;;31.30;74.20;;;;;;5039017;28;20048;-87
2021/06/29 11:31:07;;;;;;;4.22;1.50;;;30.30;76.80;;;;;;5053917;28;20056;-88
2021/06/29 11:33:45;;;;;;;5.03;1.20;;;29.70;84.40;;;;;;5036319;28;20442;-87
2021/06/29 11:36:24;;;;;;;1.15;1.08;;;29.70;81.70;;;;;;5053753;28;20055;-86
2021/06/29 11:38:54;;;;;;;1.83;1.10;;;29.70;87.00;;;;;;5036240;28;20045;-87
2021/06/29 11:41:24;;;;;;;1.58;1.30;;;29.20;86.80;;;;;;5036021;28;20482;-86
2021/06/29 11:43:53;;;;;;;1.08;1.08;;;28.20;91.60;;;;;;5053427;28;20045;-85
2021/06/29 11:47:02;;;;;;;1.30;1.20;;;27.60;94.40;;;;;;5035612;28;20055;-87
2021/06/29 11:49:58;;;;;;;1.08;1.08;;;27.30;99.90;;;;;;5035947;28;20049;-87
2021/06/29 11:52:31;;;;;;;1.30;1.20;;;26.90;99.90;;;;;;5036042;28;20053;-87
2021/06/29 11:55:18;;;;;;;1.13;1.10;;;26.90;99.90;;;;;;5036012;28;20049;-87
2021/06/29 11:57:50;;;;;;;1.27;1.20;;;26.80;99.90;;;;;;5035942;28;20299;-88
2021/06/29 12:00:30;;;;;;;2.65;1.35;;;26.40;99.90;;;;;;5035759;28;20103;-87
2021/06/29 12:03:06;;;;;;;1.25;1.15;;;25.60;99.90;;;;;;5036153;28;20077;-88
2021/06/29 12:05:35;;;;;;;3.13;1.33;;;24.90;99.90;;;;;;5035918;28;20148;-90
2021/06/29 12:08:07;;;;;;;3.58;1.20;;;24.30;99.90;;;;;;5036103;28;20041;-87
2021/06/29 12:10:35;;;;;;;1.58;1.08;;;23.90;99.90;;;;;;5053307;28;20143;-88
2021/06/29 12:13:21;;;;;;;3.17;1.40;;;23.50;99.90;;;;;;5035918;28;20045;-87
2021/06/29 12:15:52;;;;;;;1.83;1.73;;;23.20;99.90;;;;;;5036060;28;20053;-89
2021/06/29 12:18:24;;;;;;;2.28;2.05;;;23.00;99.90;;;;;;5035909;28;20049;-89
2021/06/29 12:21:01;;;;;;;4.20;2.22;;;22.80;99.90;;;;;;5035943;28;20049;-91
2021/06/29 12:23:34;;;;;;;3.72;1.98;;;22.60;99.90;;;;;;5036245;28;20139;-91
2021/06/29 12:26:03;;;;;;;2.05;1.77;;;22.50;99.90;;;;;;5046390;28;20035;-90
2021/06/29 12:28:34;;;;;;;1.90;1.80;;;22.50;99.90;;;;;;5048186;28;20120;-89
2021/06/29 12:31:10;;;;;;;1.48;1.42;;;22.60;99.90;;;;;;5036144;28;20055;-90
2021/06/29 12:33:42;;;;;;;1.80;1.80;;;22.60;99.90;;;;;;5035770;28;20049;-87
2021/06/29 12:36:22;;;;;;;2.00;1.85;;;22.80;99.90;;;;;;5035808;28;20055;-88
2021/06/29 12:38:54;;;;;;;1.50;1.50;;;23.00;99.90;;;;;;5035940;28;20444;-89
2021/06/29 12:41:27;;;;;;;1.95;1.83;;;23.40;99.90;;;;;;5035783;28;20103;-87
2021/06/29 12:43:57;;;;;;;1.95;1.50;;;23.70;99.90;;;;;;5053864;28;20233;-90
2021/06/29 12:46:28;;;;;;;1.00;1.00;;;24.10;99.90;;;;;;5037555;28;20053;-89
2021/06/29 12:48:59;;;;;;;1.95;1.10;;;24.60;99.90;;;;;;5036325;28;20053;-88
2021/06/29 12:51:28;;;;;;;1.00;0.80;;;25.10;99.90;;;;;;5035633;28;20045;-87
2021/06/29 12:53:57;;;;;;;1.00;1.00;;;25.70;99.90;;;;;;5053402;28;20515;-89
2021/06/29 12:56:43;;;;;;;1.58;1.00;;;26.10;99.90;;;;;;5053109;28;20516;-88
2021/06/29 12:59:11;;;;;;;1.00;1.00;;;26.40;99.90;;;;;;5035544;28;20045;-87
2021/06/29 13:01:40;;;;;;;1.38;1.10;;;26.60;99.90;;;;;;5053320;28;20049;-87